Flight Track Log - Related Links

Times and Time Zones

All times are in EDT time to prevent confusion due to time zone crossing. See the DAL6234 flight status page for this flight to view local times or setup timezone preferences in your user account.

Time Position Orientation Groundspeed Altitude Reporting Facility
EDT Latitude Longitude Course Direction KTS MPH feet Rate Location/Type
Wed 04:05:34 PM 40.8264 -73.9028 315° West 197 227 2,800  Level New York Center
Wed 04:06:34 PM 40.8864 -73.9167 350° North 213 245 4,900 2,900 Climbing New York Center
Wed 04:07:34 PM 40.9411 -73.9742 322° Northwest 233 268 8,600 3,050 Climbing New York Center
Wed 04:08:34 PM 40.9850 -74.0450 309° West 247 284 11,000 2,350 Climbing New York Center
Wed 04:09:34 PM 41.0281 -74.1431 300° West 294 338 13,300 2,400 Climbing New York Center
Wed 04:10:34 PM 41.0731 -74.2417 301° West 311 358 15,800 1,350 Climbing New York Center
Wed 04:11:00 PM 41.1495 -74.2155 315° West  Level Estimated
Wed 04:11:34 PM 41.1142 -74.3292 302° West 316 364 16,000  Level New York Center
Wed 04:12:34 PM 41.1631 -74.4367 301° West 316 364 16,000  Level New York Center
Wed 04:13:34 PM 41.2019 -74.5214 301° West 316 364 16,000 750 Level New York Center
Wed 04:14:34 PM 41.2569 -74.6239 306° West 311 358 17,500 2,050 Climbing New York Center
Wed 04:15:34 PM 41.3103 -74.7125 309° West 306 352 20,100 2,250 Climbing New York Center
Wed 04:16:34 PM 41.3636 -74.8011 309° West 306 352 22,000 950 Climbing New York Center
Wed 04:17:34 PM 41.4169 -74.8819 311° West 306 352 22,000  Level New York Center
Wed 04:18:34 PM 41.4683 -74.9653 309° West 301 346 22,000 -400 Level New York Center
Wed 04:19:34 PM 41.5236 -75.0492 311° West 301 346 21,200 -1,000 Descending New York Center
Wed 04:20:34 PM 41.5744 -75.1356 308° West 296 341 20,000 -600 Descending New York Center
Wed 04:21:34 PM 41.6236 -75.2164 309° West 296 341 20,000  Level New York Center
Wed 04:22:34 PM 41.6725 -75.3031 307° West 291 335 20,000  Level New York Center
Wed 04:23:34 PM 41.7211 -75.3869 308° West 291 335 20,000  Level New York Center
Wed 04:24:34 PM 41.7700 -75.4681 309° West 291 335 20,000  Level New York Center
Wed 04:25:34 PM 41.8189 -75.5522 308° West 291 335 20,000  Level New York Center
Wed 04:26:34 PM 41.8675 -75.6339 309° West 291 335 20,000 -400 Level New York Center
Wed 04:27:34 PM 41.9139 -75.7181 307° West 291 335 19,200 -950 Descending New York Center
Wed 04:28:34 PM 41.9625 -75.7997 309° West 286 329 18,100 -900 Descending New York Center
Wed 04:29:34 PM 42.0092 -75.8814 308° West 281 323 17,400 -850 Descending New York Center
Wed 04:30:34 PM 42.0556 -75.9606 308° West 281 323 16,400 -1,000 Descending New York Center
Wed 04:31:34 PM 42.1019 -76.0422 307° West 281 323 15,400 -1,000 Descending New York Center
Wed 04:32:34 PM 42.1483 -76.1217 308° West 281 323 14,400 -1,000 Descending New York Center
Wed 04:33:34 PM 42.2250 -76.1333 354° North 250 288 13,400 -950 Descending New York Center
Wed 04:34:34 PM 42.3044 -76.1231 North 257 296 12,500 -905 Descending New York Center
Wed 04:35:40 PM 42.3756 -76.1144 North 274 315 11,500 -762 Descending Boston Center
Wed 04:36:40 PM 42.4514 -76.1053 North 273 314 10,900 -298 Descending Boston Center
Wed 04:37:41 PM 42.5269 -76.0969 North 273 314 10,900  Level Boston Center
Wed 04:38:44 PM 42.6181 -76.0856 North 274 315 10,900 -194 Level Boston Center
Wed 04:39:45 PM 42.6906 -76.0808 North 266 306 10,500 -923 Descending Boston Center
Wed 04:40:41 PM 42.7564 -76.0986 349° North 262 302 9,100 -1,452 Descending Boston Center
Wed 04:40:47 PM 42.7639 -76.1025 339° North 264 304 9,000 -1,574 Descending Boston Center
Wed 04:41:42 PM 42.8278 -76.1181 350° North 264 304 7,500 -1,672 Descending Boston Center
Wed 04:41:48 PM 42.8356 -76.1228 336° Northwest 267 307 7,300 -1,727 Descending Boston Center
Wed 04:42:48 PM 42.9039 -76.1392 350° North 256 295 5,600 -1,800 Descending Boston Center
Wed 04:43:48 PM 42.9775 -76.1564 350° North 252 290 3,700 -1,810 Descending Boston Center
Wed 04:43:51 PM 42.9725 -76.1556 173° South 253 291 3,700 -787 Level Boston Center
Wed 04:44:49 PM 43.0383 -76.1756 347° North 210 242 2,900 -787 Descending Boston Center
Wed 04:44:52 PM 43.0364 -76.1725 131° Southeast 246 283 2,900 -1,200 Level Boston Center
Wed 04:45:49 PM 43.0856 -76.1875 347° North 152 175 1,700 -1,200 Descending Boston Center
Wed 04:45:52 PM 43.0833 -76.1894 213° Southwest 209 241 1,700 -787 Level Boston Center
Wed 04:46:50 PM 43.1064 -76.1533 49° Northeast 119 137 900 -750 Descending Boston Center
Wed 04:46:56 PM 43.1086 -76.1592 298° West 159 183 900 -537 Level Boston Center
Wed 04:47:57 PM 43.1086 -76.1100 90° East 117 135 300 -590 Descending Boston Center

Login

Don't have an account? Register now (free) for customized features, flight alerts, and more!